sensor_id;sensor_type;location;lat;lon;timestamp;P1;durP1;ratioP1;P2;durP2;ratioP2
48534;SDS011;34323;52.022;5.686;2022-09-09T16:15:10;2.65;;;1.33;;
48534;SDS011;34323;52.022;5.686;2022-09-09T16:17:36;2.15;;;1.15;;
48534;SDS011;34323;52.022;5.686;2022-09-09T16:20:03;0.98;;;0.90;;
48534;SDS011;34323;52.022;5.686;2022-09-09T16:22:31;2.45;;;0.90;;
48534;SDS011;34323;52.022;5.686;2022-09-09T16:24:57;3.22;;;1.02;;
48534;SDS011;34323;52.022;5.686;2022-09-09T16:27:23;3.03;;;1.00;;
48534;SDS011;34323;52.022;5.686;2022-09-09T16:29:49;2.28;;;0.90;;
48534;SDS011;34323;52.022;5.686;2022-09-09T16:32:15;1.05;;;0.80;;
48534;SDS011;34323;52.022;5.686;2022-09-09T16:34:41;1.63;;;0.90;;
48534;SDS011;34323;52.022;5.686;2022-09-09T16:37:07;2.80;;;0.80;;
48534;SDS011;34323;52.022;5.686;2022-09-09T16:39:33;2.50;;;0.90;;
48534;SDS011;34323;52.022;5.686;2022-09-09T16:41:59;2.13;;;0.55;;
48534;SDS011;34323;52.022;5.686;2022-09-09T16:44:25;4.15;;;0.70;;
48534;SDS011;34323;52.022;5.686;2022-09-09T16:46:51;1.73;;;0.75;;
48534;SDS011;34323;52.022;5.686;2022-09-09T16:49:17;1.23;;;0.70;;
48534;SDS011;34323;52.022;5.686;2022-09-09T16:51:44;1.00;;;0.90;;
48534;SDS011;34323;52.022;5.686;2022-09-09T16:54:12;1.98;;;0.90;;
48534;SDS011;34323;52.022;5.686;2022-09-09T16:56:39;1.10;;;0.80;;
48534;SDS011;34323;52.022;5.686;2022-09-09T16:59:07;2.25;;;0.95;;
48534;SDS011;34323;52.022;5.686;2022-09-09T17:01:38;1.98;;;0.88;;
48534;SDS011;34323;52.022;5.686;2022-09-09T17:04:09;1.80;;;0.80;;
48534;SDS011;34323;52.022;5.686;2022-09-09T17:06:38;3.92;;;1.35;;
48534;SDS011;34323;52.022;5.686;2022-09-09T17:09:07;1.90;;;1.20;;
48534;SDS011;34323;52.022;5.686;2022-09-09T17:11:36;1.80;;;1.40;;
48534;SDS011;34323;52.022;5.686;2022-09-09T17:14:03;2.10;;;1.15;;
48534;SDS011;34323;52.022;5.686;2022-09-09T17:16:30;2.05;;;1.33;;
48534;SDS011;34323;52.022;5.686;2022-09-09T17:18:57;1.85;;;1.30;;
48534;SDS011;34323;52.022;5.686;2022-09-09T17:21:27;2.70;;;1.55;;
48534;SDS011;34323;52.022;5.686;2022-09-09T17:23:53;5.22;;;1.50;;
48534;SDS011;34323;52.022;5.686;2022-09-09T17:26:22;1.73;;;1.13;;
48534;SDS011;34323;52.022;5.686;2022-09-09T17:28:51;1.63;;;1.17;;
48534;SDS011;34323;52.022;5.686;2022-09-09T17:31:18;3.25;;;1.30;;
48534;SDS011;34323;52.022;5.686;2022-09-09T17:33:45;2.55;;;1.13;;
48534;SDS011;34323;52.022;5.686;2022-09-09T17:36:14;3.67;;;1.63;;
48534;SDS011;34323;52.022;5.686;2022-09-09T17:38:40;3.53;;;1.45;;
48534;SDS011;34323;52.022;5.686;2022-09-09T17:43:38;5.53;;;2.25;;
48534;SDS011;34323;52.022;5.686;2022-09-09T17:46:05;2.78;;;1.63;;
48534;SDS011;34323;52.022;5.686;2022-09-09T17:48:35;5.88;;;2.20;;
48534;SDS011;34323;52.022;5.686;2022-09-09T17:51:05;6.20;;;2.15;;
48534;SDS011;34323;52.022;5.686;2022-09-09T17:53:39;3.38;;;1.90;;
48534;SDS011;34323;52.022;5.686;2022-09-09T17:56:07;1.75;;;1.50;;
48534;SDS011;34323;52.022;5.686;2022-09-09T17:58:35;4.05;;;2.38;;
48534;SDS011;34323;52.022;5.686;2022-09-09T18:01:05;3.03;;;1.90;;
48534;SDS011;34323;52.022;5.686;2022-09-09T18:03:37;4.05;;;2.03;;
48534;SDS011;34323;52.022;5.686;2022-09-09T18:06:05;3.40;;;1.80;;
48534;SDS011;34323;52.022;5.686;2022-09-09T18:08:33;2.95;;;2.08;;
48534;SDS011;34323;52.022;5.686;2022-09-09T18:11:00;3.35;;;1.92;;
48534;SDS011;34323;52.022;5.686;2022-09-09T18:13:27;2.90;;;2.17;;
48534;SDS011;34323;52.022;5.686;2022-09-09T18:15:53;3.00;;;2.08;;
48534;SDS011;34323;52.022;5.686;2022-09-09T18:18:20;3.65;;;2.03;;
48534;SDS011;34323;52.022;5.686;2022-09-09T18:20:56;3.33;;;1.92;;
48534;SDS011;34323;52.022;5.686;2022-09-09T18:23:33;4.47;;;2.22;;
48534;SDS011;34323;52.022;5.686;2022-09-09T18:26:09;4.38;;;1.80;;
48534;SDS011;34323;52.022;5.686;2022-09-09T18:28:37;4.40;;;1.92;;
48534;SDS011;34323;52.022;5.686;2022-09-09T18:31:07;4.28;;;2.38;;
48534;SDS011;34323;52.022;5.686;2022-09-09T18:33:36;4.95;;;2.78;;
48534;SDS011;34323;52.022;5.686;2022-09-09T18:36:06;2.72;;;2.25;;
48534;SDS011;34323;52.022;5.686;2022-09-09T18:38:34;4.47;;;2.53;;
48534;SDS011;34323;52.022;5.686;2022-09-09T18:41:11;3.05;;;2.08;;
48534;SDS011;34323;52.022;5.686;2022-09-09T18:43:37;4.07;;;2.65;;
48534;SDS011;34323;52.022;5.686;2022-09-09T18:46:03;5.13;;;2.88;;
48534;SDS011;34323;52.022;5.686;2022-09-09T18:48:33;3.47;;;2.85;;
48534;SDS011;34323;52.022;5.686;2022-09-09T18:51:06;4.38;;;2.70;;
48534;SDS011;34323;52.022;5.686;2022-09-09T18:53:34;3.10;;;2.40;;
48534;SDS011;34323;52.022;5.686;2022-09-09T18:56:05;4.90;;;2.42;;
48534;SDS011;34323;52.022;5.686;2022-09-09T18:58:33;4.95;;;2.60;;
48534;SDS011;34323;52.022;5.686;2022-09-09T19:01:00;3.90;;;2.55;;
48534;SDS011;34323;52.022;5.686;2022-09-09T19:03:28;3.08;;;2.70;;
48534;SDS011;34323;52.022;5.686;2022-09-09T19:06:02;3.97;;;2.80;;
48534;SDS011;34323;52.022;5.686;2022-09-09T19:08:32;4.82;;;3.38;;
48534;SDS011;34323;52.022;5.686;2022-09-09T19:11:01;8.18;;;3.85;;
48534;SDS011;34323;52.022;5.686;2022-09-09T19:13:31;5.78;;;3.40;;
48534;SDS011;34323;52.022;5.686;2022-09-09T19:16:04;4.95;;;3.67;;
48534;SDS011;34323;52.022;5.686;2022-09-09T19:18:34;5.03;;;3.58;;
48534;SDS011;34323;52.022;5.686;2022-09-09T19:21:14;6.10;;;3.72;;
48534;SDS011;34323;52.022;5.686;2022-09-09T19:23:47;6.45;;;3.78;;
48534;SDS011;34323;52.022;5.686;2022-09-09T19:26:18;5.40;;;3.90;;
48534;SDS011;34323;52.022;5.686;2022-09-09T19:28:45;6.50;;;3.95;;
48534;SDS011;34323;52.022;5.686;2022-09-09T19:31:13;5.85;;;4.43;;
48534;SDS011;34323;52.022;5.686;2022-09-09T19:33:40;7.40;;;4.47;;
48534;SDS011;34323;52.022;5.686;2022-09-09T19:36:14;5.57;;;4.72;;
48534;SDS011;34323;52.022;5.686;2022-09-09T19:38:42;8.48;;;4.72;;
48534;SDS011;34323;52.022;5.686;2022-09-09T19:41:11;8.93;;;4.38;;
48534;SDS011;34323;52.022;5.686;2022-09-09T19:43:38;6.63;;;5.00;;
48534;SDS011;34323;52.022;5.686;2022-09-09T19:46:05;7.03;;;5.32;;
48534;SDS011;34323;52.022;5.686;2022-09-09T19:48:34;6.50;;;5.38;;
48534;SDS011;34323;52.022;5.686;2022-09-09T19:51:09;13.35;;;8.73;;
48534;SDS011;34323;52.022;5.686;2022-09-09T19:53:42;6.75;;;4.95;;
48534;SDS011;34323;52.022;5.686;2022-09-09T19:56:09;8.05;;;5.28;;
48534;SDS011;34323;52.022;5.686;2022-09-09T19:58:37;8.23;;;5.60;;
48534;SDS011;34323;52.022;5.686;2022-09-09T20:01:05;7.38;;;5.38;;
48534;SDS011;34323;52.022;5.686;2022-09-09T20:03:39;7.68;;;5.93;;
48534;SDS011;34323;52.022;5.686;2022-09-09T20:06:13;7.47;;;6.25;;
48534;SDS011;34323;52.022;5.686;2022-09-09T20:08:42;6.80;;;5.40;;
48534;SDS011;34323;52.022;5.686;2022-09-09T20:11:10;9.85;;;5.60;;
48534;SDS011;34323;52.022;5.686;2022-09-09T20:13:36;6.75;;;5.68;;
48534;SDS011;34323;52.022;5.686;2022-09-09T20:16:04;8.40;;;6.10;;
48534;SDS011;34323;52.022;5.686;2022-09-09T20:18:42;9.10;;;5.75;;
48534;SDS011;34323;52.022;5.686;2022-09-09T20:21:14;8.13;;;5.85;;
48534;SDS011;34323;52.022;5.686;2022-09-09T20:23:45;8.02;;;6.22;;
48534;SDS011;34323;52.022;5.686;2022-09-09T20:26:13;8.88;;;6.28;;
48534;SDS011;34323;52.022;5.686;2022-09-09T20:28:45;8.60;;;6.18;;
48534;SDS011;34323;52.022;5.686;2022-09-09T20:31:18;9.27;;;6.05;;
48534;SDS011;34323;52.022;5.686;2022-09-09T20:33:46;8.68;;;5.78;;
48534;SDS011;34323;52.022;5.686;2022-09-09T20:38:43;6.82;;;5.63;;
48534;SDS011;34323;52.022;5.686;2022-09-09T20:41:11;12.52;;;7.10;;
48534;SDS011;34323;52.022;5.686;2022-09-09T20:43:48;8.27;;;6.03;;
48534;SDS011;34323;52.022;5.686;2022-09-09T20:46:19;7.72;;;5.88;;
48534;SDS011;34323;52.022;5.686;2022-09-09T20:48:50;8.30;;;5.70;;
48534;SDS011;34323;52.022;5.686;2022-09-09T20:51:20;8.25;;;6.22;;
48534;SDS011;34323;52.022;5.686;2022-09-09T20:53:52;9.27;;;6.45;;
48534;SDS011;34323;52.022;5.686;2022-09-09T20:56:20;9.05;;;5.63;;
48534;SDS011;34323;52.022;5.686;2022-09-09T20:58:57;7.03;;;5.30;;
48534;SDS011;34323;52.022;5.686;2022-09-09T21:01:24;8.02;;;5.68;;
48534;SDS011;34323;52.022;5.686;2022-09-09T21:03:50;9.23;;;5.88;;
48534;SDS011;34323;52.022;5.686;2022-09-09T21:06:17;8.18;;;6.25;;
48534;SDS011;34323;52.022;5.686;2022-09-09T21:08:44;10.18;;;6.22;;
48534;SDS011;34323;52.022;5.686;2022-09-09T21:11:11;15.40;;;7.32;;
48534;SDS011;34323;52.022;5.686;2022-09-09T21:13:38;8.70;;;6.78;;
48534;SDS011;34323;52.022;5.686;2022-09-09T21:16:05;9.65;;;6.82;;
48534;SDS011;34323;52.022;5.686;2022-09-09T21:18:33;8.45;;;6.70;;
48534;SDS011;34323;52.022;5.686;2022-09-09T21:20:59;9.90;;;7.10;;
48534;SDS011;34323;52.022;5.686;2022-09-09T21:23:27;9.85;;;7.32;;
48534;SDS011;34323;52.022;5.686;2022-09-09T21:25:54;10.52;;;7.47;;
48534;SDS011;34323;52.022;5.686;2022-09-09T21:28:20;9.38;;;7.57;;
48534;SDS011;34323;52.022;5.686;2022-09-09T21:30:47;12.23;;;7.25;;
48534;SDS011;34323;52.022;5.686;2022-09-09T21:33:16;10.77;;;7.85;;
48534;SDS011;34323;52.022;5.686;2022-09-09T21:35:43;8.38;;;7.22;;
48534;SDS011;34323;52.022;5.686;2022-09-09T21:38:11;9.77;;;7.28;;
48534;SDS011;34323;52.022;5.686;2022-09-09T21:40:38;9.55;;;7.90;;
48534;SDS011;34323;52.022;5.686;2022-09-09T21:43:05;12.60;;;7.68;;
48534;SDS011;34323;52.022;5.686;2022-09-09T21:45:34;8.60;;;7.70;;
48534;SDS011;34323;52.022;5.686;2022-09-09T21:48:00;10.82;;;7.57;;
48534;SDS011;34323;52.022;5.686;2022-09-09T21:50:26;10.73;;;8.07;;
48534;SDS011;34323;52.022;5.686;2022-09-09T21:52:52;10.57;;;7.63;;
48534;SDS011;34323;52.022;5.686;2022-09-09T21:55:19;9.70;;;7.72;;
48534;SDS011;34323;52.022;5.686;2022-09-09T21:57:45;12.50;;;7.47;;
48534;SDS011;34323;52.022;5.686;2022-09-09T22:00:11;11.07;;;7.60;;
48534;SDS011;34323;52.022;5.686;2022-09-09T22:02:41;9.73;;;7.30;;
48534;SDS011;34323;52.022;5.686;2022-09-09T22:05:10;9.23;;;6.72;;
48534;SDS011;34323;52.022;5.686;2022-09-09T22:07:37;11.40;;;7.45;;
48534;SDS011;34323;52.022;5.686;2022-09-09T22:10:04;10.02;;;7.72;;
48534;SDS011;34323;52.022;5.686;2022-09-09T22:12:31;10.15;;;6.93;;
48534;SDS011;34323;52.022;5.686;2022-09-09T22:14:59;12.50;;;7.90;;
48534;SDS011;34323;52.022;5.686;2022-09-09T22:17:25;9.75;;;7.28;;
48534;SDS011;34323;52.022;5.686;2022-09-09T22:19:50;9.38;;;7.28;;
48534;SDS011;34323;52.022;5.686;2022-09-09T22:22:17;8.82;;;7.00;;
48534;SDS011;34323;52.022;5.686;2022-09-09T22:24:44;11.07;;;7.40;;
48534;SDS011;34323;52.022;5.686;2022-09-09T22:27:10;10.88;;;7.22;;
48534;SDS011;34323;52.022;5.686;2022-09-09T22:29:38;9.27;;;7.10;;
48534;SDS011;34323;52.022;5.686;2022-09-09T22:32:04;10.65;;;7.45;;
48534;SDS011;34323;52.022;5.686;2022-09-09T22:34:30;12.85;;;7.70;;
48534;SDS011;34323;52.022;5.686;2022-09-09T22:36:57;10.95;;;7.95;;
48534;SDS011;34323;52.022;5.686;2022-09-09T22:39:24;12.25;;;7.20;;
48534;SDS011;34323;52.022;5.686;2022-09-09T22:41:49;10.70;;;7.38;;
48534;SDS011;34323;52.022;5.686;2022-09-09T22:44:15;9.32;;;7.35;;
48534;SDS011;34323;52.022;5.686;2022-09-09T22:46:42;9.45;;;6.97;;
48534;SDS011;34323;52.022;5.686;2022-09-09T22:49:07;9.13;;;6.47;;
48534;SDS011;34323;52.022;5.686;2022-09-09T22:51:35;9.38;;;6.20;;
48534;SDS011;34323;52.022;5.686;2022-09-09T22:54:00;14.35;;;6.90;;
48534;SDS011;34323;52.022;5.686;2022-09-09T22:56:26;11.10;;;6.90;;
48534;SDS011;34323;52.022;5.686;2022-09-09T22:58:53;11.85;;;7.32;;
48534;SDS011;34323;52.022;5.686;2022-09-09T23:01:20;9.38;;;7.60;;
48534;SDS011;34323;52.022;5.686;2022-09-09T23:03:49;11.70;;;7.72;;
48534;SDS011;34323;52.022;5.686;2022-09-09T23:06:22;9.32;;;7.03;;
48534;SDS011;34323;52.022;5.686;2022-09-09T23:08:53;7.80;;;5.97;;
48534;SDS011;34323;52.022;5.686;2022-09-09T23:11:21;9.02;;;7.03;;
48534;SDS011;34323;52.022;5.686;2022-09-09T23:13:51;9.63;;;6.50;;
48534;SDS011;34323;52.022;5.686;2022-09-09T23:16:18;9.13;;;5.95;;
48534;SDS011;34323;52.022;5.686;2022-09-09T23:18:46;8.63;;;6.55;;
48534;SDS011;34323;52.022;5.686;2022-09-09T23:21:13;11.05;;;6.60;;
48534;SDS011;34323;52.022;5.686;2022-09-09T23:23:40;11.30;;;6.40;;
48534;SDS011;34323;52.022;5.686;2022-09-09T23:26:11;7.57;;;6.50;;
48534;SDS011;34323;52.022;5.686;2022-09-09T23:28:38;8.63;;;5.78;;
48534;SDS011;34323;52.022;5.686;2022-09-09T23:31:08;10.70;;;6.32;;
48534;SDS011;34323;52.022;5.686;2022-09-09T23:33:37;7.60;;;5.68;;
48534;SDS011;34323;52.022;5.686;2022-09-09T23:36:08;6.53;;;4.60;;
48534;SDS011;34323;52.022;5.686;2022-09-09T23:38:37;6.70;;;4.88;;
48534;SDS011;34323;52.022;5.686;2022-09-09T23:41:05;6.53;;;4.93;;
48534;SDS011;34323;52.022;5.686;2022-09-09T23:43:32;10.63;;;5.00;;
48534;SDS011;34323;52.022;5.686;2022-09-09T23:46:07;9.05;;;4.65;;
48534;SDS011;34323;52.022;5.686;2022-09-09T23:48:34;7.25;;;4.70;;
48534;SDS011;34323;52.022;5.686;2022-09-09T23:51:03;7.40;;;3.88;;
48534;SDS011;34323;52.022;5.686;2022-09-09T23:53:30;11.63;;;4.55;;
48534;SDS011;34323;52.022;5.686;2022-09-09T23:55:56;8.43;;;4.43;;
48534;SDS011;34323;52.022;5.686;2022-09-09T23:58:25;8.02;;;4.57;;
